Current Metar reports for airports in our Region

Nearby METAR Reports

Metar reports are mainly used by pilots for information on what is happening at their destination during their pre-flight weather briefings and by meteorologists to assist in short term forecasts. A raw Metar is one of the most universal ways to communicate weather information in the world and are usually transmitted by airports, but some come from permanent sanctioned weather observatories.

Listed below are Metars from airports within 100 miles of our station here in Smethport Pa. The first one of course is the Bradford Regional Airport, then the Olean NY airport and so on. Each airport has it's own table to display it's data and at the bottom of the table is 'Raw' Metar for each airport. Most pilots and weather forecasters can look at the raw data and tell you what is up, but we use a script that handles all of the details for us.

KBFD - Bradford, Pennsylvania, USA
Distance from station: NW 7mi, 11km
Updated: Fri, 22-Jun-2018 8:16pm EDT
Mostly Cloudy
Mostly Cloudy
 Wind from SSE
Wind: SSE 12 mph , 19 km/h, Gust: 21 mph , 33 km/h
Temperature: 61°F , 16°C
Dew Point: 57°F , 14°C
Humidity: 88%
Barometer: 29.93 inHg , 1013.5 hPa
Clouds: Mostly Cloudy
Visibility: 10 miles , 16 km
Cloud details: Partly Cloudy 1200 ft
Mostly Cloudy 5000 ft
2018/06/23 00:16 KBFD 230016Z AUTO 15010G18KT 10SM SCT012 BKN050 16/14 A2993 RMK AO2 P0001 T01560139
KOLE - Olean, New York, USA
Distance from station: NNE 37mi, 59km
Updated: Fri, 22-Jun-2018 8:35pm EDT
Overcast
Overcast
 Wind from SSE
Wind: SSE 12 mph , 19 km/h, Gust: 22 mph , 35 km/h
Temperature: 59°F , 15°C
Dew Point: 59°F , 15°C
Humidity: 100%
Barometer: 29.93 inHg , 1013.5 hPa
Clouds: Overcast
Visibility: 10 miles , 16 km
Cloud details: Partly Cloudy 800 ft
Mostly Cloudy 1300 ft
Overcast 6000 ft
2018/06/23 00:35 KOLE 230035Z AUTO 15010G19KT 10SM SCT008 BKN013 OVC060 15/15 A2993 RMK AO2
 
KELZ - Wellsville, New York, USA
Distance from station: NE 40mi, 64km
Updated: Fri, 22-Jun-2018 8:26pm EDT
Heavy rain, Mist, Overcast
Heavy rain, Mist, Overcast
 Wind from SSE
Wind: SSE 10 mph , 17 km/h
Temperature: 63°F , 17°C
Dew Point: 61°F , 16°C
Humidity: 94%
Barometer: 29.96 inHg , 1014.6 hPa
Summary: Heavy rain, Mist
Clouds: Overcast
Visibility: 1 1/4 miles , 2 km
Cloud details: Few Clouds 1500 ft
Partly Cloudy 3500 ft
Overcast 10000 ft
2018/06/23 00:26 KELZ 230026Z AUTO 15009KT 1 1/4SM +RA BR FEW015 SCT035 OVC100 17/16 A2996 RMK AO2 P0006 T01720161
KDUJ - Du Bois, Pennsylvania, USA
Distance from station: SSW 42mi, 68km
Updated: Fri, 22-Jun-2018 7:53pm EDT
Overcast
Overcast
 Wind from ESE
Wind: ESE 12 mph , 19 km/h
Temperature: 61°F , 16°C
Dew Point: 59°F , 15°C
Humidity: 94%
Barometer: 29.89 inHg , 1012.2 hPa
Clouds: Overcast
Visibility: 10 miles , 16 km
Cloud details: Mostly Cloudy 1300 ft
Overcast 2000 ft
2018/06/22 23:53 KDUJ 222353Z AUTO 11010KT 10SM BKN013 OVC020 16/15 A2989 RMK AO2 SLP117 60129 T01610150 10194 20161 $
 
KJHW - Jamestown, New York, USA
Distance from station: NW 46mi, 75km
Updated: Fri, 22-Jun-2018 8:42pm EDT
Overcast
Overcast
 Wind from SSE
Wind: SSE 10 mph , 17 km/h
Temperature: 63°F , 17°C
Dew Point: 59°F , 15°C
Humidity: 88%
Barometer: 29.89 inHg , 1012.2 hPa
Clouds: Overcast
Visibility: 10 miles , 16 km
Cloud details: Partly Cloudy 1500 ft
Mostly Cloudy 5000 ft
Overcast 7500 ft
2018/06/23 00:42 KJHW 230042Z AUTO 16009KT 10SM SCT015 BKN050 OVC075 17/15 A2989 RMK AO2 RAB07E36 P0001
KFIG - Clearfield, Pennsylvania, USA
Distance from station: S 47mi, 75km
Updated: Fri, 22-Jun-2018 7:54pm EDT
Overcast
Overcast
 Wind from E
Wind: E 7 mph , 11 km/h
Temperature: 63°F , 17°C
Dew Point: 59°F , 15°C
Humidity: 88%
Barometer: 29.93 inHg , 1013.5 hPa
Clouds: Overcast
Visibility: 10 miles , 16 km
Cloud details: Mostly Cloudy 2200 ft
Overcast 3400 ft
2018/06/22 23:54 KFIG 222354Z AUTO 09006KT 10SM BKN022 OVC034 17/15 A2993 RMK AO2 SLP131 60040 T01670150 10194 20161 58005
 
KDKK - Dunkirk, New York, USA
Distance from station: NW 66mi, 106km
Updated: Fri, 22-Jun-2018 7:53pm EDT
Light rain, Mostly cloudy
Light rain, Mostly cloudy
 Wind from NNE
Wind: NNE 6 mph , 9 km/h
Temperature: 64°F , 18°C
Dew Point: 63°F , 17°C
Humidity: 94%
Barometer: 29.85 inHg , 1010.8 hPa
Summary: Light Rain
Clouds: Mostly Cloudy
Visibility: 9 miles , 14 km
Cloud details: Few Clouds 3900 ft
Partly Cloudy 10000 ft
Mostly Cloudy 12000 ft
2018/06/22 23:53 KDKK 222353Z AUTO 03005KT 9SM -RA FEW039 SCT100 BKN120 18/17 A2985 RMK AO2 SLP106 P0002 60003 T01830167 10222 20183 58005
KUNV - State College, Pennsylvania, USA
Distance from station: SSE 71mi, 114km
Updated: Fri, 22-Jun-2018 6:53pm EDT
NOT Current
Overcast
Overcast
 Wind from E
Wind: E 7 mph , 11 km/h
Temperature: 63°F , 17°C
Dew Point: 59°F , 15°C
Humidity: 88%
Barometer: 29.95 inHg , 1014.2 hPa
Clouds: Overcast
Visibility: 7 miles , 11 km
Cloud details: Partly Cloudy 2000 ft
Overcast 5000 ft
2018/06/22 22:53 KUNV 222253Z 10006KT 7SM SCT020 OVC050 17/15 A2995
 
KFKL - Franklin, Pennsylvania, USA
Distance from station: WSW 72mi, 116km
Updated: Fri, 22-Jun-2018 7:56pm EDT
Overcast
Overcast
 Wind from ESE
Wind: ESE 13 mph , 20 km/h, Gust: 22 mph , 35 km/h
Temperature: 64°F , 18°C
Dew Point: 61°F , 16°C
Humidity: 88%
Barometer: 29.86 inHg , 1011.2 hPa
Clouds: Overcast
Visibility: 10 miles , 16 km
Cloud details: Overcast 1700 ft
2018/06/22 23:56 KFKL 222356Z AUTO 12011G19KT 10SM OVC017 18/16 A2986 RMK AO2 RAB01E11 SLP106 P0000 60003 T01780156 10200 20178 55005
KDSV - Dansville, New York, USA
Distance from station: NE 73mi, 117km
Updated: Fri, 22-Jun-2018 7:54pm EDT
Overcast
Overcast
 Wind from SE
Wind: SE 10 mph , 17 km/h
Temperature: 73°F , 23°C
Dew Point: 61°F , 16°C
Humidity: 65%
Barometer: 29.90 inHg , 1012.5 hPa
Clouds: Overcast
Visibility: 10 miles , 16 km
Cloud details: Few Clouds 4500 ft
Mostly Cloudy 6000 ft
Overcast 10000 ft
2018/06/22 23:54 KDSV 222354Z AUTO 14009KT 10SM FEW045 BKN060 OVC100 23/16 A2990 RMK AO2 RAB26E29 SLP131 P0000 60000 T02330156 10250 20233 55002
 
KIDI - Indiana/Stewart, Pennsylvania, USA
Distance from station: SSW 81mi, 130km
Updated: Fri, 22-Jun-2018 8:35pm EDT
Overcast
Overcast
 Wind from ESE
Wind: ESE 14 mph , 22 km/h, Gust: 23 mph , 37 km/h
Temperature: 66°F , 19°C
Dew Point: 61°F , 16°C
Humidity: 83%
Barometer: 29.89 inHg , 1012.2 hPa
Clouds: Overcast
Visibility: 10 miles , 16 km
Cloud details: Mostly Cloudy 2000 ft
Overcast 4900 ft
2018/06/23 00:35 KIDI 230035Z AUTO 12012G20KT 10SM BKN020 OVC049 19/16 A2989 RMK A01
KBUF - Buffalo/Cheektow, New York, USA
Distance from station: N 84mi, 136km
Updated: Fri, 22-Jun-2018 7:54pm EDT
Overcast
Overcast
 Wind from SSE
Wind: SSE 8 mph , 13 km/h
Temperature: 73°F , 23°C
Dew Point: 54°F , 12°C
Humidity: 50%
Barometer: 29.88 inHg , 1011.9 hPa
Clouds: Overcast
Visibility: 10 miles , 16 km
Cloud details: Mostly Cloudy 4400 ft
Mostly Cloudy 5500 ft
Overcast 7000 ft
2018/06/22 23:54 KBUF 222354Z 16007KT 10SM BKN044 BKN055 OVC070 23/12 A2988 RMK AO2 WSHFT 2329 SLP115 60000 T02280122 10228 20217 55002
 
KGKJ - Meadville, Pennsylvania, USA
Distance from station: W 86mi, 138km
Updated: Fri, 22-Jun-2018 8:22pm EDT
Overcast
Overcast
 Wind from varies
Wind: varies 6 mph , 9 km/h
Temperature: 64°F , 18°C
Dew Point: 63°F , 17°C
Humidity: 94%
Barometer: 29.82 inHg , 1009.8 hPa
Clouds: Overcast
Visibility: 10 miles , 16 km
Cloud details: Partly Cloudy 2000 ft
Mostly Cloudy 4200 ft
Overcast 12000 ft
2018/06/23 00:22 KGKJ 230022Z AUTO VRB05KT 10SM SCT020 BKN042 OVC120 18/17 A2982 RMK AO2 T01830167
KERI - Erie, Pennsylvania, USA
Distance from station: WNW 87mi, 140km
Updated: Fri, 22-Jun-2018 7:51pm EDT
Overcast
Overcast
 Wind from SE
Wind: SE 10 mph , 17 km/h, Gust: 20 mph , 31 km/h
Temperature: 68°F , 20°C
Dew Point: 63°F , 17°C
Humidity: 83%
Barometer: 29.79 inHg , 1008.8 hPa
Clouds: Overcast
Visibility: 10 miles , 16 km
Cloud details: Overcast 5000 ft
2018/06/22 23:51 KERI 222351Z 14009G17KT 110V180 10SM OVC050 20/17 A2979 RMK AO2 RAB2255E34 SLP087 P0000 60006 T02000167 10211 20178 56010 $
 
KELM - Elmira, New York, USA
Distance from station: ENE 90mi, 145km
Updated: Fri, 22-Jun-2018 7:53pm EDT
Overcast
Overcast
 Wind from SSE
Wind: SSE 13 mph , 20 km/h, Gust: 17 mph , 28 km/h
Temperature: 72°F , 22°C
Dew Point: 63°F , 17°C
Humidity: 73%
Barometer: 29.93 inHg , 1013.5 hPa
Clouds: Overcast
Visibility: 10 miles , 16 km
Cloud details: Overcast 9500 ft
2018/06/22 23:53 KELM 222353Z 16011G15KT 10SM OVC095 22/17 A2993 RMK AO2 RAB08E53 SLP133 P0000 60000 T02170172 10250 20217 53002
KIPT - Williamsport, Pennsylvania, USA
Distance from station: ESE 91mi, 146km
Updated: Fri, 22-Jun-2018 7:54pm EDT
Light rain, Overcast
Light rain, Overcast
 Wind from SE
Wind: SE 6 mph , 9 km/h
Temperature: 68°F , 20°C
Dew Point: 61°F , 16°C
Humidity: 78%
Barometer: 29.94 inHg , 1013.9 hPa
Summary: Light Rain
Clouds: Overcast
Visibility: 10 miles , 16 km
Cloud details: Few Clouds 4200 ft
Overcast 7500 ft
2018/06/22 23:54 KIPT 222354Z 14005KT 10SM -RA FEW042 OVC075 20/16 A2994 RMK AO2 RAE16B39 SLP135 P0004 60005 T02000161 10244 20200 53004
 
KBTP - Butler Co., Pennsylvania, USA
Distance from station: SW 98mi, 157km
Updated: Fri, 22-Jun-2018 8:07pm EDT
Mostly Cloudy
Mostly Cloudy
 Wind from E
Wind: E 10 mph , 17 km/h
Temperature: 68°F , 20°C
Dew Point: 61°F , 16°C
Humidity: 78%
Barometer: 29.82 inHg , 1009.8 hPa
Clouds: Mostly Cloudy
Visibility: 10 miles , 16 km
Cloud details: Mostly Cloudy 2500 ft
Mostly Cloudy 7500 ft
2018/06/23 00:07 KBTP 230007Z AUTO 10009KT 10SM BKN025 BKN075 20/16 A2982 RMK AO2
KAOO - Altoona, Pennsylvania, USA
Distance from station: S 99mi, 159km
Updated: Fri, 22-Jun-2018 7:53pm EDT
Light rain, Overcast
Light rain, Overcast
 Wind from varies
Wind: varies 7 mph , 11 km/h
Temperature: 64°F , 18°C
Dew Point: 61°F , 16°C
Humidity: 88%
Barometer: 29.92 inHg , 1013.2 hPa
Summary: Light Rain
Clouds: Overcast
Visibility: 9 miles , 14 km
Cloud details: Overcast 1300 ft
2018/06/22 23:53 KAOO 222353Z AUTO VRB06KT 9SM -RA OVC013 18/16 A2992 RMK AO2 RAB38 SLP125 P0001 60034 T01830156 10194 20178 58003
 
KPIT - Pittsburg, Pennsylvania, USA
Distance from station: SSW 126mi, 203km
Updated: Fri, 22-Jun-2018 7:51pm EDT
Mostly Cloudy
Mostly Cloudy
 Wind from ESE
Wind: ESE 14 mph , 22 km/h
Temperature: 70°F , 21°C
Dew Point: 61°F , 16°C
Humidity: 73%
Barometer: 29.80 inHg , 1009.1 hPa
Clouds: Mostly Cloudy
Visibility: 10 miles , 16 km
Cloud details: Few Clouds 3000 ft
Mostly Cloudy 12000 ft
Mostly Cloudy 25000 ft
2018/06/22 23:51 KPIT 222351Z 12012KT 10SM FEW030 BKN120 BKN250 21/16 A2980 RMK AO2 SLP092 60000 T02110161 10239 20206 55004
KCLE - Cleveland, Ohio, USA
Distance from station: WSW 160mi, 258km
Updated: Fri, 22-Jun-2018 7:51pm EDT
Light rain, Overcast
Light rain, Overcast
 Wind from SSE
Wind: SSE 8 mph , 13 km/h
Temperature: 66°F , 19°C
Dew Point: 63°F , 17°C
Humidity: 88%
Barometer: 29.73 inHg , 1006.8 hPa
Summary: Light Rain
Clouds: Overcast
Visibility: 10 miles , 16 km
Cloud details: Few Clouds 7000 ft
Mostly Cloudy 11000 ft
Overcast 25000 ft
2018/06/22 23:51 KCLE 222351Z 15007KT 10SM -RA FEW070 BKN110 OVC250 19/17 A2973 RMK AO2 SLP061 P0009 60023 T01940172 10233 20194 58012 $